createdAt,value
2023-03-05T00:00:40.292Z,0
2023-03-05T00:03:58.793Z,0
2023-03-05T00:06:10.998Z,0
2023-03-05T00:07:17.210Z,0
2023-03-05T00:08:23.377Z,0
2023-03-05T00:09:29.548Z,0
2023-03-05T00:10:35.608Z,0
2023-03-05T00:11:41.774Z,0
2023-03-05T00:12:47.887Z,0
2023-03-05T00:13:53.153Z,0
2023-03-05T00:14:59.241Z,0
2023-03-05T00:16:04.334Z,0
2023-03-05T00:20:29.040Z,0
2023-03-05T00:21:35.113Z,0
2023-03-05T00:22:41.252Z,0
2023-03-05T00:23:47.349Z,0
2023-03-05T00:24:53.572Z,0
2023-03-05T00:25:59.719Z,0
2023-03-05T00:27:05.851Z,0
2023-03-05T00:28:11.947Z,0
2023-03-05T00:29:18.151Z,0
2023-03-05T00:30:23.232Z,0
2023-03-05T00:31:29.510Z,0
2023-03-05T00:32:35.542Z,0
2023-03-05T00:33:41.776Z,0
2023-03-05T00:34:47.817Z,0
2023-03-05T00:37:00.146Z,0
2023-03-05T00:38:06.284Z,0
2023-03-05T00:39:12.474Z,0
2023-03-05T00:41:24.654Z,0
2023-03-05T00:42:30.862Z,0
2023-03-05T00:43:36.938Z,0
2023-03-05T00:44:42.208Z,0
2023-03-05T00:45:48.303Z,0
2023-03-05T00:46:54.463Z,0
2023-03-05T00:48:00.762Z,0
2023-03-05T00:49:06.782Z,0
2023-03-05T00:50:12.827Z,0
2023-03-05T00:51:18.955Z,0
2023-03-05T00:53:31.272Z,0
2023-03-05T00:54:37.518Z,0
2023-03-05T00:55:43.534Z,0
2023-03-05T00:56:49.788Z,0
2023-03-05T00:57:55.986Z,0
2023-03-05T00:59:01.114Z,0
2023-03-05T01:00:07.299Z,0
2023-03-05T01:01:13.496Z,0
2023-03-05T01:02:19.624Z,0
2023-03-05T01:03:25.693Z,0
2023-03-05T01:04:30.899Z,0
2023-03-05T01:05:36.018Z,0
2023-03-05T01:06:42.145Z,0
2023-03-05T01:07:48.341Z,0
2023-03-05T01:10:00.570Z,0
2023-03-05T01:11:06.857Z,0
2023-03-05T01:12:12.938Z,0
2023-03-05T01:13:19.000Z,0
2023-03-05T01:15:31.321Z,0
2023-03-05T01:16:37.417Z,0
2023-03-05T01:18:49.697Z,0
2023-03-05T01:19:54.901Z,0
2023-03-05T01:21:00.027Z,0
2023-03-05T01:22:06.227Z,0
2023-03-05T01:23:12.385Z,0
2023-03-05T01:24:18.513Z,0
2023-03-05T01:26:30.766Z,0
2023-03-05T01:28:43.082Z,0
2023-03-05T01:30:55.428Z,0
2023-03-05T01:32:01.497Z,0
2023-03-05T01:33:07.680Z,0
2023-03-05T01:35:19.964Z,0
2023-03-05T01:36:25.090Z,0
2023-03-05T01:37:31.299Z,0
2023-03-05T01:38:37.352Z,0
2023-03-05T01:39:43.579Z,0
2023-03-05T01:40:49.636Z,0
2023-03-05T01:43:01.977Z,0
2023-03-05T01:44:08.174Z,0
2023-03-05T01:45:14.295Z,0
2023-03-05T01:46:20.391Z,0
2023-03-05T01:47:26.553Z,0
2023-03-05T01:48:32.632Z,0
2023-03-05T01:49:38.870Z,0
2023-03-05T01:50:43.998Z,0
2023-03-05T01:51:50.097Z,0
2023-03-05T01:52:56.285Z,0
2023-03-05T01:55:08.541Z,0
2023-03-05T01:56:14.657Z,0
2023-03-05T01:57:20.852Z,0
2023-03-05T01:59:33.126Z,0
2023-03-05T02:00:39.269Z,0
2023-03-05T02:01:45.436Z,0
2023-03-05T02:02:51.592Z,0
2023-03-05T02:05:03.834Z,0
2023-03-05T02:06:08.982Z,0
2023-03-05T02:07:15.210Z,0
2023-03-05T02:08:21.323Z,0
2023-03-05T02:09:27.450Z,0
2023-03-05T02:10:33.546Z,0
2023-03-05T02:11:39.678Z,0
2023-03-05T02:12:45.822Z,0
2023-03-05T02:13:51.967Z,0
2023-03-05T02:17:10.525Z,0
2023-03-05T02:20:28.847Z,0
2023-03-05T02:21:33.990Z,0
2023-03-05T02:22:40.144Z,0
2023-03-05T02:23:46.378Z,0
2023-03-05T02:24:52.497Z,0
2023-03-05T02:25:58.723Z,0
2023-03-05T02:27:04.759Z,0
2023-03-05T02:28:10.920Z,0
2023-03-05T02:29:16.988Z,0
2023-03-05T02:32:35.428Z,0
2023-03-05T02:33:41.606Z,0
2023-03-05T02:34:47.890Z,0
2023-03-05T02:35:53.039Z,0
2023-03-05T02:36:59.152Z,0
2023-03-05T02:38:05.296Z,0
2023-03-05T02:39:11.429Z,0
2023-03-05T02:40:17.558Z,0
2023-03-05T02:41:23.713Z,0
2023-03-05T02:42:30.095Z,0
2023-03-05T02:43:36.123Z,0
2023-03-05T02:44:42.270Z,0
2023-03-05T02:45:48.418Z,0
2023-03-05T02:46:54.582Z,0
2023-03-05T02:49:06.861Z,0
2023-03-05T02:50:12.982Z,0
2023-03-05T02:51:19.141Z,0
2023-03-05T02:52:25.285Z,0
2023-03-05T02:53:31.474Z,0
2023-03-05T02:54:37.574Z,0
2023-03-05T02:55:42.730Z,0
2023-03-05T02:56:47.904Z,0
2023-03-05T02:57:54.040Z,0
2023-03-05T02:59:00.198Z,0
2023-03-05T03:00:06.327Z,0
2023-03-05T03:01:12.472Z,0
2023-03-05T03:02:18.613Z,0
2023-03-05T03:03:24.800Z,0
2023-03-05T03:05:37.066Z,0
2023-03-05T03:06:43.205Z,0
2023-03-05T03:07:49.346Z,0
2023-03-05T03:08:55.471Z,0
2023-03-05T03:10:01.628Z,0
2023-03-05T03:11:06.781Z,0
2023-03-05T03:12:12.924Z,0
2023-03-05T03:13:19.062Z,0
2023-03-05T03:14:25.228Z,0
2023-03-05T03:15:31.347Z,0
2023-03-05T03:16:37.573Z,0
2023-03-05T03:17:43.638Z,0
2023-03-05T03:18:49.829Z,0
2023-03-05T03:19:54.951Z,0
2023-03-05T03:22:06.254Z,0
2023-03-05T03:24:18.565Z,0
2023-03-05T03:25:24.739Z,0
2023-03-05T03:26:30.845Z,0
2023-03-05T03:27:37.075Z,0
2023-03-05T03:28:43.117Z,0
2023-03-05T03:29:49.270Z,0
2023-03-05T03:30:55.437Z,0
2023-03-05T03:32:01.559Z,0
2023-03-05T03:33:07.714Z,0
2023-03-05T03:34:13.849Z,0
2023-03-05T03:35:19.000Z,0
2023-03-05T03:36:25.179Z,0
2023-03-05T03:38:37.461Z,0
2023-03-05T03:39:42.608Z,0
2023-03-05T03:40:47.811Z,0
2023-03-05T03:41:54.028Z,0
2023-03-05T03:43:00.042Z,0
2023-03-05T03:44:06.190Z,0
2023-03-05T03:45:12.396Z,0
2023-03-05T03:46:18.478Z,0
2023-03-05T03:47:24.716Z,0
2023-03-05T03:48:30.881Z,0
2023-03-05T03:49:36.935Z,0
2023-03-05T03:50:43.055Z,0
2023-03-05T03:51:48.240Z,0
2023-03-05T03:52:53.384Z,0
2023-03-05T03:55:05.671Z,0
2023-03-05T03:57:17.988Z,0
2023-03-05T03:58:24.113Z,0
2023-03-05T04:00:36.470Z,0
2023-03-05T04:01:42.542Z,0
2023-03-05T04:02:48.677Z,0
2023-03-05T04:03:54.828Z,0
2023-03-05T04:05:00.999Z,0
2023-03-05T04:06:07.119Z,0
2023-03-05T04:07:13.410Z,0
2023-03-05T04:08:18.645Z,0
2023-03-05T04:09:24.748Z,0
2023-03-05T04:11:37.048Z,0
2023-03-05T04:12:43.146Z,0
2023-03-05T04:13:49.287Z,0
2023-03-05T04:14:55.419Z,0
2023-03-05T04:16:01.623Z,0
2023-03-05T04:17:07.710Z,0
2023-03-05T04:18:13.860Z,0
2023-03-05T04:19:19.992Z,0
2023-03-05T04:20:26.150Z,0
2023-03-05T04:21:32.292Z,0
2023-03-05T04:22:37.494Z,0
2023-03-05T04:23:43.591Z,0
2023-03-05T04:25:55.868Z,0
2023-03-05T04:28:07.181Z,0
2023-03-05T04:29:12.364Z,0
2023-03-05T04:30:17.536Z,0
2023-03-05T04:31:23.660Z,0
2023-03-05T04:32:29.803Z,0
2023-03-05T04:33:35.948Z,0
2023-03-05T04:34:42.084Z,0
2023-03-05T04:35:48.244Z,0
2023-03-05T04:36:54.463Z,0
2023-03-05T04:38:00.518Z,0
2023-03-05T04:39:06.669Z,0
2023-03-05T04:40:12.803Z,0
2023-03-05T04:41:17.975Z,0
2023-03-05T04:42:23.130Z,0
2023-03-05T04:44:35.416Z,0
2023-03-05T04:45:41.625Z,0
2023-03-05T04:46:47.721Z,0
2023-03-05T04:47:53.886Z,0
2023-03-05T04:49:00.011Z,0
2023-03-05T04:50:06.145Z,0
2023-03-05T04:51:12.368Z,0
2023-03-05T04:52:18.434Z,0
2023-03-05T04:53:24.594Z,0
2023-03-05T04:54:30.825Z,0
2023-03-05T04:55:36.963Z,0
2023-03-05T04:56:42.097Z,0
2023-03-05T04:57:48.158Z,0
2023-03-05T04:58:54.324Z,0
2023-03-05T05:01:06.655Z,0
2023-03-05T05:02:11.774Z,0
2023-03-05T05:03:16.932Z,0
2023-03-05T05:04:23.064Z,0
2023-03-05T05:05:29.229Z,0
2023-03-05T05:06:35.348Z,0
2023-03-05T05:07:41.490Z,0
2023-03-05T05:08:47.676Z,0
2023-03-05T05:09:53.784Z,0
2023-03-05T05:10:59.926Z,0
2023-03-05T05:12:06.081Z,0
2023-03-05T05:13:12.261Z,0
2023-03-05T05:14:17.386Z,0
2023-03-05T05:15:22.542Z,0
2023-03-05T05:17:34.840Z,0
2023-03-05T05:18:41.007Z,0
2023-03-05T05:19:47.122Z,0
2023-03-05T05:20:53.259Z,0
2023-03-05T05:21:59.407Z,0
2023-03-05T05:23:05.551Z,0
2023-03-05T05:24:11.755Z,0
2023-03-05T05:25:17.838Z,0
2023-03-05T05:26:23.980Z,0
2023-03-05T05:27:30.126Z,0
2023-03-05T05:28:36.271Z,0
2023-03-05T05:29:41.445Z,0
2023-03-05T05:30:47.565Z,0
2023-03-05T05:31:53.772Z,0
2023-03-05T05:34:05.997Z,0
2023-03-05T05:35:11.257Z,0
2023-03-05T05:36:16.374Z,0
2023-03-05T05:37:22.505Z,0
2023-03-05T05:38:28.627Z,0
2023-03-05T05:39:34.760Z,4
2023-03-05T05:40:41.041Z,0
2023-03-05T05:41:47.065Z,4
2023-03-05T05:42:53.228Z,4
2023-03-05T05:43:59.371Z,4
2023-03-05T05:46:11.686Z,8
2023-03-05T05:48:23.911Z,8
2023-03-05T05:50:36.281Z,12
2023-03-05T05:51:41.385Z,12
2023-03-05T05:52:47.502Z,16
2023-03-05T05:53:53.665Z,20
2023-03-05T05:56:05.931Z,28
2023-03-05T05:57:12.112Z,32
2023-03-05T05:58:18.234Z,36
2023-03-05T05:59:24.367Z,40
2023-03-05T06:00:30.516Z,48
2023-03-05T06:01:36.660Z,52
2023-03-05T06:02:42.796Z,56
2023-03-05T06:03:48.949Z,60
2023-03-05T06:04:55.090Z,64
2023-03-05T06:07:06.381Z,76
2023-03-05T06:08:12.715Z,76
2023-03-05T06:09:18.819Z,84
2023-03-05T06:10:24.972Z,92
2023-03-05T06:11:31.105Z,96
2023-03-05T06:12:37.264Z,100
2023-03-05T06:13:43.396Z,104
2023-03-05T06:14:49.543Z,112
2023-03-05T06:15:55.716Z,120
2023-03-05T06:17:01.854Z,128
2023-03-05T06:18:07.997Z,132
2023-03-05T06:19:14.281Z,140
2023-03-05T06:20:19.426Z,156
2023-03-05T06:21:25.559Z,172
2023-03-05T06:23:37.850Z,200
2023-03-05T06:24:43.022Z,208
2023-03-05T06:25:49.162Z,216
2023-03-05T06:28:01.442Z,240
2023-03-05T06:29:07.594Z,252
2023-03-05T06:32:26.030Z,292
2023-03-05T06:33:32.232Z,300
2023-03-05T06:34:38.400Z,312
2023-03-05T06:35:43.620Z,332
2023-03-05T06:36:48.751Z,352
2023-03-05T06:40:07.147Z,416
2023-03-05T06:42:19.488Z,464
2023-03-05T06:43:25.553Z,488
2023-03-05T06:44:31.677Z,500
2023-03-05T06:45:37.791Z,512
2023-03-05T06:46:43.952Z,524
2023-03-05T06:47:50.070Z,528
2023-03-05T06:48:56.215Z,536
2023-03-05T06:50:02.388Z,548
2023-03-05T06:51:07.536Z,564
2023-03-05T06:52:13.762Z,588
2023-03-05T06:53:19.858Z,624
2023-03-05T06:54:26.111Z,660
2023-03-05T06:56:38.253Z,724
2023-03-05T06:57:44.394Z,768
2023-03-05T06:58:50.539Z,812
2023-03-05T06:59:56.671Z,856
2023-03-05T07:01:02.903Z,896
2023-03-05T07:02:09.093Z,936
2023-03-05T07:03:15.142Z,972
2023-03-05T07:04:21.348Z,1008
2023-03-05T07:05:26.439Z,1024
2023-03-05T07:06:31.570Z,1028
2023-03-05T07:07:37.718Z,1040
2023-03-05T07:08:43.859Z,1064
2023-03-05T07:09:50.089Z,1104
2023-03-05T07:10:56.208Z,1140
2023-03-05T07:15:20.734Z,1240
2023-03-05T07:16:26.866Z,1256
2023-03-05T07:17:33.111Z,1276
2023-03-05T07:18:39.154Z,1288
2023-03-05T07:19:45.357Z,1296
2023-03-05T07:20:50.501Z,1320
2023-03-05T07:21:55.634Z,1376
2023-03-05T07:24:07.909Z,1472
2023-03-05T07:25:14.064Z,1484
2023-03-05T07:26:20.332Z,1492
2023-03-05T07:27:26.340Z,1528
2023-03-05T07:29:38.636Z,1676
2023-03-05T07:30:44.764Z,1716
2023-03-05T07:31:50.921Z,1732
2023-03-05T07:32:57.136Z,1756
2023-03-05T07:34:03.215Z,1792
2023-03-05T07:35:09.359Z,1820
2023-03-05T07:36:14.518Z,1856
2023-03-05T07:37:20.828Z,1936
2023-03-05T07:38:26.812Z,2060
2023-03-05T07:39:33.018Z,2156
2023-03-05T07:40:39.095Z,2180
2023-03-05T07:41:45.298Z,2140
2023-03-05T07:42:51.392Z,2104
2023-03-05T07:43:57.534Z,2080
2023-03-05T07:46:09.819Z,2136
2023-03-05T07:47:15.950Z,2168
2023-03-05T07:48:22.091Z,2180
2023-03-05T07:49:28.344Z,2176
2023-03-05T07:51:39.760Z,2216
2023-03-05T07:52:45.803Z,2260
2023-03-05T07:53:52.064Z,2288
2023-03-05T07:54:58.086Z,2288
2023-03-05T07:56:04.247Z,2276
2023-03-05T07:57:10.381Z,2276
2023-03-05T07:58:16.549Z,2284
2023-03-05T07:59:22.669Z,2288
2023-03-05T08:00:28.911Z,2284
2023-03-05T08:02:41.149Z,2348
2023-03-05T08:03:47.260Z,2420
2023-03-05T08:04:52.538Z,2484
2023-03-05T08:05:58.580Z,2540
2023-03-05T08:07:04.811Z,2576
2023-03-05T08:08:10.905Z,2620
2023-03-05T08:09:17.131Z,2696
2023-03-05T08:10:23.110Z,2804
2023-03-05T08:11:29.487Z,2920
2023-03-05T08:12:35.548Z,3012
2023-03-05T08:13:41.588Z,3088
2023-03-05T08:14:46.719Z,3128
2023-03-05T08:15:51.898Z,3188
2023-03-05T08:16:58.062Z,3264
2023-03-05T08:19:10.316Z,3380
2023-03-05T08:20:16.655Z,3396
2023-03-05T08:21:22.664Z,3404
2023-03-05T08:23:34.883Z,3500
2023-03-05T08:24:41.123Z,3588
2023-03-05T08:25:47.163Z,3716
2023-03-05T08:26:53.318Z,3828
2023-03-05T08:27:59.449Z,3900
2023-03-05T08:29:04.657Z,3912
2023-03-05T08:30:09.818Z,3936
2023-03-05T08:31:16.063Z,3984
2023-03-05T08:32:22.074Z,4120
2023-03-05T08:33:28.221Z,4304
2023-03-05T08:35:40.507Z,4720
2023-03-05T08:36:46.690Z,4916
2023-03-05T08:37:52.841Z,5116
2023-03-05T08:38:58.960Z,5236
2023-03-05T08:40:05.082Z,5280
2023-03-05T08:41:11.217Z,5372
2023-03-05T08:42:17.367Z,5480
2023-03-05T08:43:23.604Z,5576
2023-03-05T08:44:28.669Z,5656
2023-03-05T08:45:34.830Z,5696
2023-03-05T08:46:41.002Z,5700
2023-03-05T08:47:47.168Z,5708
2023-03-05T08:48:53.241Z,5800
2023-03-05T08:49:59.447Z,5852
2023-03-05T08:52:11.716Z,5960
2023-03-05T08:53:17.828Z,6172
2023-03-05T08:54:24.082Z,6176
2023-03-05T08:55:30.134Z,6212
2023-03-05T08:56:36.247Z,6208
2023-03-05T08:57:42.390Z,6172
2023-03-05T08:58:48.745Z,6156
2023-03-05T08:59:53.844Z,6184
2023-03-05T09:00:59.989Z,6284
2023-03-05T09:02:06.138Z,6380
2023-03-05T09:03:12.462Z,6400
2023-03-05T09:04:18.429Z,6364
2023-03-05T09:05:24.562Z,6484
2023-03-05T09:06:30.723Z,6656
2023-03-05T09:08:43.000Z,7256
2023-03-05T09:09:49.132Z,7416
2023-03-05T09:10:55.277Z,7444
2023-03-05T09:12:01.446Z,7436
2023-03-05T09:13:07.561Z,7524
2023-03-05T09:14:12.716Z,7664
2023-03-05T09:15:18.868Z,7820
2023-03-05T09:16:25.059Z,8012
2023-03-05T09:17:31.165Z,8196
2023-03-05T09:18:37.310Z,8356
2023-03-05T09:19:43.439Z,8460
2023-03-05T09:20:49.592Z,8540
2023-03-05T09:21:55.738Z,8724
2023-03-05T09:23:00.908Z,9024
2023-03-05T09:26:19.453Z,9388
2023-03-05T09:27:25.660Z,9436
2023-03-05T09:28:31.723Z,9564
2023-03-05T09:29:37.918Z,9844
2023-03-05T09:30:44.004Z,10232
2023-03-05T09:31:50.165Z,10680
2023-03-05T09:32:56.307Z,11048
2023-03-05T09:34:02.443Z,11352
2023-03-05T09:35:08.600Z,11624
2023-03-05T09:36:14.741Z,11844
2023-03-05T09:37:20.966Z,12056
2023-03-05T09:38:26.079Z,12172
2023-03-05T09:39:32.185Z,12204
2023-03-05T09:41:44.456Z,13292
2023-03-05T09:42:50.647Z,15296
2023-03-05T09:43:56.748Z,17664
2023-03-05T09:45:02.911Z,24224
2023-03-05T09:46:09.058Z,27264
2023-03-05T09:47:15.180Z,26304
2023-03-05T09:48:21.349Z,28832
2023-03-05T09:49:27.466Z,30176
2023-03-05T09:50:33.621Z,34912
2023-03-05T09:52:45.914Z,43008
2023-03-05T09:53:51.123Z,46624
2023-03-05T09:54:57.197Z,49536
2023-03-05T09:56:03.352Z,49600
2023-03-05T09:58:15.648Z,48416
2023-03-05T09:59:20.806Z,48032
2023-03-05T10:00:25.963Z,46624
2023-03-05T10:01:32.105Z,49280
2023-03-05T10:02:38.256Z,52896
2023-03-05T10:03:44.384Z,52384
2023-03-05T10:04:50.534Z,52544
2023-03-05T10:05:55.741Z,54688
2023-03-05T10:07:01.858Z,56064
2023-03-05T10:08:07.983Z,57664
2023-03-05T10:09:14.127Z,58144
2023-03-05T10:10:20.274Z,55680
2023-03-05T10:11:25.436Z,57024
2023-03-05T10:14:42.881Z,56160
2023-03-05T10:15:49.028Z,55584
2023-03-05T10:16:55.175Z,55712
2023-03-05T10:18:01.305Z,54912
2023-03-05T10:19:07.464Z,55872
2023-03-05T10:20:13.606Z,58560
2023-03-05T10:21:19.744Z,60736
2023-03-05T10:22:25.903Z,60224
2023-03-05T10:23:32.041Z,59104
2023-03-05T10:24:38.163Z,64000
2023-03-05T10:25:44.315Z,63264
2023-03-05T10:26:49.616Z,62464
2023-03-05T10:27:55.617Z,61632
2023-03-05T10:31:14.058Z,62176
2023-03-05T10:32:19.239Z,59552
2023-03-05T10:33:24.367Z,61632
2023-03-05T10:34:30.518Z,64736
2023-03-05T10:35:36.666Z,60640
2023-03-05T10:36:42.864Z,59968
2023-03-05T10:37:49.010Z,62944
2023-03-05T10:38:55.172Z,63424
2023-03-05T10:40:01.241Z,61184
2023-03-05T10:41:07.397Z,64768
2023-03-05T10:42:13.528Z,64576
2023-03-05T10:44:25.811Z,928
2023-03-05T10:47:44.229Z,64672
2023-03-05T10:48:49.424Z,63680
2023-03-05T10:49:55.710Z,63616
2023-03-05T10:51:02.003Z,3072
2023-03-05T10:52:08.077Z,1504
2023-03-05T10:56:32.690Z,65184
2023-03-05T10:57:38.791Z,416
2023-03-05T10:58:45.000Z,65408
2023-03-05T10:59:51.095Z,63456
2023-03-05T11:00:57.242Z,544
2023-03-05T11:02:03.369Z,65440
2023-03-05T11:04:15.651Z,64032
2023-03-05T11:05:20.813Z,1600
2023-03-05T11:06:26.999Z,1408
2023-03-05T11:07:33.105Z,64384
2023-03-05T11:08:39.253Z,64192
2023-03-05T11:09:45.377Z,2560
2023-03-05T11:10:51.525Z,61920
2023-03-05T11:11:57.674Z,59008
2023-03-05T11:13:03.822Z,63488
2023-03-05T11:14:09.958Z,62816
2023-03-05T11:15:16.086Z,61920
2023-03-05T11:16:22.245Z,61536
2023-03-05T11:17:28.391Z,28960
2023-03-05T11:18:34.560Z,16128
2023-03-05T11:20:45.882Z,11808
2023-03-05T11:21:50.991Z,11636
2023-03-05T11:22:57.136Z,11424
2023-03-05T11:24:03.298Z,10784
2023-03-05T11:25:09.420Z,10236
2023-03-05T11:26:15.565Z,10104
2023-03-05T11:27:20.741Z,10032
2023-03-05T11:29:32.100Z,9604
2023-03-05T11:30:38.181Z,9308
2023-03-05T11:31:44.362Z,9084
2023-03-05T11:32:50.469Z,9000
2023-03-05T11:33:56.621Z,9416
2023-03-05T11:35:02.880Z,11120
2023-03-05T11:37:15.061Z,35520
2023-03-05T11:38:21.230Z,16352
2023-03-05T11:39:27.425Z,36768
2023-03-05T11:40:33.481Z,26016
2023-03-05T11:41:39.611Z,42144
2023-03-05T11:42:44.765Z,43552
2023-03-05T11:43:50.922Z,49536
2023-03-05T11:44:57.085Z,22272
2023-03-05T11:46:03.202Z,19616
2023-03-05T11:47:09.346Z,17536
2023-03-05T11:49:21.629Z,14384
2023-03-05T11:51:32.947Z,13164
2023-03-05T11:53:44.263Z,11796
2023-03-05T11:54:49.432Z,11336
2023-03-05T11:55:54.706Z,11392
2023-03-05T11:57:00.788Z,10880
2023-03-05T11:58:06.890Z,10880
2023-03-05T11:59:13.020Z,11876
2023-03-05T12:00:19.168Z,12516
2023-03-05T12:01:25.317Z,12012
2023-03-05T12:02:31.455Z,11476
2023-03-05T12:03:37.597Z,10724
2023-03-05T12:04:43.734Z,11864
2023-03-05T12:05:49.893Z,11012
2023-03-05T12:10:13.500Z,11344
2023-03-05T12:11:18.666Z,12132
2023-03-05T12:12:24.967Z,25824
2023-03-05T12:13:30.933Z,16128
2023-03-05T12:14:37.123Z,13936
2023-03-05T12:15:43.216Z,14752
2023-03-05T12:16:49.395Z,14856
2023-03-05T12:19:01.645Z,12940
2023-03-05T12:20:07.784Z,12984
2023-03-05T12:21:13.928Z,12344
2023-03-05T12:22:20.069Z,11888
2023-03-05T12:23:26.207Z,11652
2023-03-05T12:24:32.389Z,11172
2023-03-05T12:26:43.656Z,13480
2023-03-05T12:27:49.803Z,14072
2023-03-05T12:28:55.939Z,15456
2023-03-05T12:30:02.095Z,15584
2023-03-05T12:31:08.229Z,15184
2023-03-05T12:32:14.370Z,14976
2023-03-05T12:33:20.532Z,14640
2023-03-05T12:34:26.667Z,14080
2023-03-05T12:35:32.911Z,13384
2023-03-05T12:36:39.002Z,13352
2023-03-05T12:37:45.125Z,13352
2023-03-05T12:38:51.239Z,13312
2023-03-05T12:39:56.427Z,13108
2023-03-05T12:41:02.549Z,12684
2023-03-05T12:43:13.858Z,11980
2023-03-05T12:44:19.007Z,11924
2023-03-05T12:45:25.201Z,11884
2023-03-05T12:46:31.304Z,11928
2023-03-05T12:47:37.460Z,12084
2023-03-05T12:48:43.772Z,12248
2023-03-05T12:49:48.773Z,12068
2023-03-05T12:50:53.911Z,11752
2023-03-05T12:52:00.186Z,11440
2023-03-05T12:53:06.214Z,11164
2023-03-05T12:54:12.415Z,10984
2023-03-05T12:55:18.479Z,10828
2023-03-05T12:56:24.623Z,10716
2023-03-05T12:57:30.801Z,10608
2023-03-05T12:59:43.137Z,10384
2023-03-05T13:00:49.293Z,10172
2023-03-05T13:01:55.431Z,10056
2023-03-05T13:03:01.535Z,9980
2023-03-05T13:04:07.670Z,9992
2023-03-05T13:05:12.847Z,9952
2023-03-05T13:06:18.931Z,9700
2023-03-05T13:07:25.154Z,9356
2023-03-05T13:08:31.377Z,9012
2023-03-05T13:09:37.414Z,8604
2023-03-05T13:10:43.508Z,8520
2023-03-05T13:11:49.647Z,8656
2023-03-05T13:12:55.854Z,8852
2023-03-05T13:14:01.065Z,8532
2023-03-05T13:16:13.229Z,7124
2023-03-05T13:17:18.392Z,7332
2023-03-05T13:18:24.530Z,7096
2023-03-05T13:20:36.879Z,6568
2023-03-05T13:21:43.078Z,6592
2023-03-05T13:22:49.111Z,6668
2023-03-05T13:23:55.390Z,6564
2023-03-05T13:25:01.443Z,5964
2023-03-05T13:26:07.539Z,5608
2023-03-05T13:27:13.678Z,5404
2023-03-05T13:28:19.825Z,5164
2023-03-05T13:29:25.969Z,5076
2023-03-05T13:30:32.271Z,5192
2023-03-05T13:32:43.507Z,5240
2023-03-05T13:33:48.642Z,5208
2023-03-05T13:34:53.781Z,5364
2023-03-05T13:36:00.107Z,5588
2023-03-05T13:37:06.142Z,5284
2023-03-05T13:38:12.342Z,4936
2023-03-05T13:39:18.424Z,4928
2023-03-05T13:41:30.740Z,5704
2023-03-05T13:42:36.819Z,5788
2023-03-05T13:43:43.030Z,5600
2023-03-05T13:44:49.053Z,5576
2023-03-05T13:45:55.177Z,5624
2023-03-05T13:47:00.336Z,5492
2023-03-05T13:49:12.627Z,5436
2023-03-05T13:50:17.840Z,5168
2023-03-05T13:51:22.963Z,5464
2023-03-05T13:53:35.372Z,5460
2023-03-05T13:54:41.384Z,5468
2023-03-05T13:55:47.574Z,5084
2023-03-05T13:56:53.707Z,5248
2023-03-05T13:57:59.856Z,5212
2023-03-05T13:59:06.033Z,5264
2023-03-05T14:00:12.129Z,5128
2023-03-05T14:01:18.248Z,5000
2023-03-05T14:03:30.577Z,4764
2023-03-05T14:06:48.961Z,4532
2023-03-05T14:07:54.147Z,4620
2023-03-05T14:09:00.260Z,4696
2023-03-05T14:10:06.550Z,4620
2023-03-05T14:11:12.695Z,4536
2023-03-05T14:13:24.938Z,4520
2023-03-05T14:14:31.175Z,4372
2023-03-05T14:15:37.116Z,4296
2023-03-05T14:16:43.261Z,4376
2023-03-05T14:17:49.458Z,4356
2023-03-05T14:18:55.676Z,4316
2023-03-05T14:20:01.703Z,4304
2023-03-05T14:22:14.064Z,4488
2023-03-05T14:23:19.225Z,4504
2023-03-05T14:24:25.306Z,4560
2023-03-05T14:26:37.576Z,4576
2023-03-05T14:27:43.778Z,4636
2023-03-05T14:28:49.861Z,4616
2023-03-05T14:29:56.050Z,4640
2023-03-05T14:31:02.166Z,4576
2023-03-05T14:32:08.404Z,4496
2023-03-05T14:33:14.567Z,4564
2023-03-05T14:34:20.597Z,4772
2023-03-05T14:35:26.718Z,4736
2023-03-05T14:36:33.015Z,4764
2023-03-05T14:38:44.231Z,4788
2023-03-05T14:40:56.452Z,4576
2023-03-05T14:44:14.980Z,4376
2023-03-05T14:47:33.503Z,4652
2023-03-05T14:48:39.526Z,4692
2023-03-05T14:49:45.704Z,4684
2023-03-05T14:50:51.942Z,4672
2023-03-05T14:51:56.999Z,4632
2023-03-05T14:53:03.167Z,4612
2023-03-05T14:55:15.345Z,4460
2023-03-05T14:56:21.459Z,4376
2023-03-05T14:57:27.612Z,4352
2023-03-05T14:58:33.773Z,4208
2023-03-05T14:59:39.931Z,4136
2023-03-05T15:00:46.057Z,4028
2023-03-05T15:01:52.299Z,3944
2023-03-05T15:02:58.411Z,3860
2023-03-05T15:04:04.532Z,3804
2023-03-05T15:05:10.626Z,3732
2023-03-05T15:06:15.780Z,3672
2023-03-05T15:07:21.986Z,3620
2023-03-05T15:08:28.228Z,3564
2023-03-05T15:09:34.238Z,3528
2023-03-05T15:11:45.706Z,3416
2023-03-05T15:12:50.680Z,3384
2023-03-05T15:13:56.860Z,3304
2023-03-05T15:15:03.022Z,3224
2023-03-05T15:16:09.142Z,3128
2023-03-05T15:17:15.245Z,3004
2023-03-05T15:18:21.520Z,2888
2023-03-05T15:19:26.569Z,2780
2023-03-05T15:20:31.790Z,2668
2023-03-05T15:21:37.964Z,2568
2023-03-05T15:22:44.018Z,2492
2023-03-05T15:23:50.317Z,2468
2023-03-05T15:24:56.289Z,2448
2023-03-05T15:26:02.555Z,2428
2023-03-05T15:28:14.800Z,2356
2023-03-05T15:29:20.905Z,2308
2023-03-05T15:30:27.014Z,2272
2023-03-05T15:31:33.162Z,2252
2023-03-05T15:33:45.523Z,2164
2023-03-05T15:34:50.612Z,2144
2023-03-05T15:35:55.808Z,2132
2023-03-05T15:37:02.005Z,2128
2023-03-05T15:38:08.108Z,2108
2023-03-05T15:40:20.422Z,2128
2023-03-05T15:41:26.559Z,2148
2023-03-05T15:42:32.770Z,2164
2023-03-05T15:44:44.975Z,2296
2023-03-05T15:45:51.076Z,2224
2023-03-05T15:46:57.211Z,2136
2023-03-05T15:48:03.425Z,2064
2023-03-05T15:50:15.632Z,2040
2023-03-05T15:51:20.792Z,2052
2023-03-05T15:53:33.124Z,1988
2023-03-05T15:54:39.221Z,1940
2023-03-05T15:55:45.439Z,1844
2023-03-05T15:56:51.496Z,1760
2023-03-05T15:57:57.736Z,1756
2023-03-05T15:59:03.908Z,1800
2023-03-05T16:01:16.163Z,1776
2023-03-05T16:02:22.245Z,1820
2023-03-05T16:03:28.425Z,1840
2023-03-05T16:04:34.509Z,1844
2023-03-05T16:05:39.726Z,1832
2023-03-05T16:06:45.817Z,1784
2023-03-05T16:07:51.985Z,1752
2023-03-05T16:08:58.122Z,1720
2023-03-05T16:10:04.236Z,1680
2023-03-05T16:11:10.455Z,1656
2023-03-05T16:12:16.539Z,1672
2023-03-05T16:13:22.778Z,1680
2023-03-05T16:14:28.814Z,1700
2023-03-05T16:15:35.097Z,1700
2023-03-05T16:17:46.387Z,1596
2023-03-05T16:18:51.568Z,1520
2023-03-05T16:19:57.712Z,1468
2023-03-05T16:21:03.881Z,1416
2023-03-05T16:22:09.939Z,1324
2023-03-05T16:23:16.197Z,1280
2023-03-05T16:26:33.509Z,1176
2023-03-05T16:27:38.642Z,1180
2023-03-05T16:28:44.837Z,1164
2023-03-05T16:29:50.907Z,1148
2023-03-05T16:30:57.072Z,1124
2023-03-05T16:32:03.268Z,1104
2023-03-05T16:34:15.597Z,1024
2023-03-05T16:35:21.646Z,984
2023-03-05T16:36:27.833Z,940
2023-03-05T16:37:33.974Z,908
2023-03-05T16:38:40.095Z,868
2023-03-05T16:39:46.264Z,836
2023-03-05T16:41:58.536Z,780
2023-03-05T16:43:03.766Z,752
2023-03-05T16:44:09.836Z,728
2023-03-05T16:45:15.994Z,700
2023-03-05T16:46:22.069Z,676
2023-03-05T16:47:28.286Z,644
2023-03-05T16:48:34.416Z,616
2023-03-05T16:50:46.693Z,548
2023-03-05T16:51:52.838Z,516
2023-03-05T16:52:58.932Z,480
2023-03-05T16:54:05.109Z,448
2023-03-05T16:55:11.246Z,412
2023-03-05T16:56:17.360Z,388
2023-03-05T16:57:22.533Z,356
2023-03-05T16:58:28.759Z,332
2023-03-05T16:59:34.880Z,312
2023-03-05T17:01:47.294Z,268
2023-03-05T17:02:53.295Z,248
2023-03-05T17:03:59.406Z,228
2023-03-05T17:05:05.705Z,208
2023-03-05T17:07:18.021Z,168
2023-03-05T17:08:23.969Z,156
2023-03-05T17:09:30.258Z,140
2023-03-05T17:10:36.321Z,124
2023-03-05T17:11:41.486Z,116
2023-03-05T17:12:47.533Z,104
2023-03-05T17:14:59.882Z,84
2023-03-05T17:16:06.022Z,76
2023-03-05T17:17:12.262Z,72
2023-03-05T17:18:18.325Z,64
2023-03-05T17:19:24.443Z,60
2023-03-05T17:20:30.811Z,48
2023-03-05T17:21:36.884Z,44
2023-03-05T17:23:49.090Z,32
2023-03-05T17:24:55.216Z,28
2023-03-05T17:26:00.382Z,24
2023-03-05T17:27:06.476Z,20
2023-03-05T17:28:11.656Z,16
2023-03-05T17:29:17.723Z,16
2023-03-05T17:30:23.895Z,12
2023-03-05T17:31:30.041Z,8
2023-03-05T17:32:36.182Z,8
2023-03-05T17:33:42.388Z,8
2023-03-05T17:34:48.512Z,4